Fuji Maru — JD2030 — position and weather

sailwx.info

Track history (hours):
 
Tides and Currents Weather Stations Pressure Air Temp Water Temp Dewpoint Dewpoint Depression Visibility Wind Speed Wind Dir Waves Ship Positions

Fuji Maru

Last reported at 2014-Jul-28 20:28 UTC. Time now 2014-Jul-28 20:42 UTC.
Position N 35°39' E 139°46'.

Length 38 m; draft 4.4 m.

Type: Tug. MMSI: 431001102.

Date/timePositionNaut miles runAvg speedWind from/ knotsBaromVisibWave heightAir tempDewpointWater temp
2014-Jul-28 20:28N 35°39' E 139°46'0 0.0
2014-Jul-28 19:22N 35°39' E 139°46'0 0.0
2014-Jul-28 18:22N 35°39' E 139°46'0 0.0
2014-Jul-28 17:31N 35°39' E 139°46'0 0.0
2014-Jul-28 16:31N 35°39' E 139°46'0 0.0
2014-Jul-28 15:28N 35°39' E 139°46'0 0.0
2014-Jul-28 14:28N 35°39' E 139°46'0 0.0
2014-Jul-28 13:31N 35°39' E 139°46'0 0.0
2014-Jul-28 12:28N 35°39' E 139°46'0 0.0
2014-Jul-28 11:28N 35°39' E 139°46'0 0.0
2014-Jul-28 10:31N 35°39' E 139°46'0 0.0
2014-Jul-28 09:31N 35°39' E 139°46'0 0.0
2014-Jul-28 08:28N 35°39' E 139°46'0 0.0
2014-Jul-28 07:31N 35°39' E 139°46'0 0.0
2014-Jul-28 06:25N 35°39' E 139°46'0 0.0
2014-Jul-28 05:31N 35°39' E 139°46'0 0.0
2014-Jul-28 04:31N 35°39' E 139°46'0 0.0
2014-Jul-28 03:28N 35°39' E 139°46'0 0.0
2014-Jul-28 02:28N 35°39' E 139°46'0 0.1
2014-Jul-28 01:31N 35°39' E 139°46'0 0.0
2014-Jul-28 00:28N 35°39' E 139°46'0 0.0
2014-Jul-27 23:31N 35°39' E 139°46'0 0.0
2014-Jul-27 22:28N 35°39' E 139°46'0 0.0
2014-Jul-27 21:28N 35°39' E 139°46'0 0.0
2014-Jul-27 20:22N 35°39' E 139°46'0 0.0
2014-Jul-27 19:22N 35°39' E 139°46'0 0.0
2014-Jul-27 18:28N 35°39' E 139°46'1 0.8
2014-Jul-27 17:33N 35°38' E 139°46'1 1.4
2014-Jul-27 16:33N 35°37' E 139°46'1 1.3
2014-Jul-27 15:31N 35°38' E 139°46'0 0.0
2014-Jul-27 14:31N 35°38' E 139°46'0 0.0
2014-Jul-27 13:31N 35°38' E 139°46'0 0.0
2014-Jul-27 12:31N 35°38' E 139°46'0 0.0
2014-Jul-27 11:28N 35°38' E 139°46'0 0.0
2014-Jul-27 10:28N 35°38' E 139°46'0 0.0
2014-Jul-27 09:31N 35°38' E 139°46'0 0.0
2014-Jul-27 08:31N 35°38' E 139°46'2 1.9
2014-Jul-27 07:28N 35°36' E 139°47'1 1.2
2014-Jul-27 06:33N 35°37' E 139°46'2 1.5
2014-Jul-27 05:26N 35°39' E 139°46'0 0.0
2014-Jul-27 04:32N 35°39' E 139°46'0 0.0
2014-Jul-27 03:29N 35°39' E 139°46'0 0.0
2014-Jul-27 02:29N 35°39' E 139°46'0 0.0
2014-Jul-27 01:23N 35°39' E 139°46'0 0.1
2014-Jul-27 00:32N 35°39' E 139°46'0 0.0
2014-Jul-26 23:29N 35°39' E 139°46'2 2.4
2014-Jul-26 22:33N 35°37' E 139°46'4 3.8
2014-Jul-26 21:33N 35°34' E 139°49'3 3.3
2014-Jul-26 20:33N 35°36' E 139°47'3 2.3
2014-Jul-26 19:28N 35°39' E 139°46'0 0.0
2014-Jul-26 18:31N 35°39' E 139°46'0 0.0
2014-Jul-26 17:28N 35°39' E 139°46'0 0.0
2014-Jul-26 16:31N 35°39' E 139°46'0 0.0
2014-Jul-26 15:28N 35°39' E 139°46'0 0.0
2014-Jul-26 14:31N 35°39' E 139°46'0 0.0
2014-Jul-26 13:22N 35°39' E 139°46'0 0.0
2014-Jul-26 12:31N 35°39' E 139°46'0 0.0
2014-Jul-26 11:25N 35°39' E 139°46'0 0.0
2014-Jul-26 10:28N 35°39' E 139°46'0 0.0
2014-Jul-26 09:28N 35°39' E 139°46'0 0.0
2014-Jul-26 08:28N 35°39' E 139°46'0 0.0
2014-Jul-26 07:28N 35°39' E 139°46'0 0.0
2014-Jul-26 06:28N 35°39' E 139°46'0 0.0
2014-Jul-26 05:31N 35°39' E 139°46'3 3.1
2014-Jul-26 04:33N 35°36' E 139°46'1 0.8
2014-Jul-26 03:30N 35°37' E 139°47'3 2.7
2014-Jul-26 02:34N 35°34' E 139°48'5 4.4
2014-Jul-26 01:28N 35°39' E 139°46'0 0.0
2014-Jul-26 00:31N 35°39' E 139°46'0 0.0
2014-Jul-25 23:31N 35°39' E 139°46'0 0.0
2014-Jul-25 22:32N 35°39' E 139°46'0 0.0
2014-Jul-25 21:33N 35°39' E 139°46'0 0.0
2014-Jul-25 20:27N 35°39' E 139°46'0 0.0
2014-Jul-25 19:33N 35°39' E 139°46'0 0.0
2014-Jul-25 18:33N 35°39' E 139°46'0 0.0
2014-Jul-25 17:24N 35°39' E 139°46'0 0.0
2014-Jul-25 16:33N 35°39' E 139°46'0 0.0
2014-Jul-25 15:27N 35°39' E 139°46'0 0.0
2014-Jul-25 14:33N 35°39' E 139°46'0 0.0
2014-Jul-25 13:33N 35°39' E 139°46'0 0.0
2014-Jul-25 12:33N 35°39' E 139°46'0 0.0
2014-Jul-25 11:33N 35°39' E 139°46'0 0.0
2014-Jul-25 10:33N 35°39' E 139°46'0 0.0
2014-Jul-25 09:33N 35°39' E 139°46'0 0.0
2014-Jul-25 08:27N 35°39' E 139°46'2 2.1
2014-Jul-25 07:33N 35°37' E 139°46'2 1.9
2014-Jul-25 06:33N 35°39' E 139°46'1 0.8
2014-Jul-25 05:33N 35°39' E 139°47'3 3.2
2014-Jul-25 04:34N 35°36' E 139°47'3 3.0
2014-Jul-25 03:32N 35°39' E 139°46'0 0.0
2014-Jul-25 02:32N 35°39' E 139°46'0 0.0
2014-Jul-25 01:29N 35°39' E 139°46'0 0.0
2014-Jul-25 00:32N 35°39' E 139°46'0 0.0
2014-Jul-24 23:29N 35°39' E 139°46'0 0.0
2014-Jul-24 22:32N 35°39' E 139°46'0 0.0
2014-Jul-24 21:32N 35°39' E 139°46'0 0.0
2014-Jul-24 20:26N 35°39' E 139°46'0 0.0
2014-Jul-24 19:17N 35°39' E 139°46'0 0.0
2014-Jul-24 18:29N 35°39' E 139°46'0 0.0
2014-Jul-24 17:32N 35°39' E 139°46'0 0.0
2014-Jul-24 16:32N 35°39' E 139°46'0 0.0
2014-Jul-24 15:32N 35°39' E 139°46'0 0.0
2014-Jul-24 14:20N 35°39' E 139°46'0 0.0
2014-Jul-24 13:32N 35°39' E 139°46'0 0.0
2014-Jul-24 12:29N 35°39' E 139°46'0 0.0
2014-Jul-24 11:32N 35°39' E 139°46'0 0.0
2014-Jul-24 10:29N 35°39' E 139°46'2 2.4
2014-Jul-24 09:33N 35°37' E 139°46'2 2.0
2014-Jul-24 08:33N 35°35' E 139°48'4 3.8
2014-Jul-24 07:31N 35°39' E 139°46'0 0.0
2014-Jul-24 06:31N 35°39' E 139°46'0 0.0
2014-Jul-24 05:31N 35°39' E 139°46'0 0.0
2014-Jul-24 04:28N 35°39' E 139°46'0 0.1
2014-Jul-24 03:31N 35°39' E 139°46'0 0.0
2014-Jul-24 02:28N 35°39' E 139°46'0 0.0
2014-Jul-24 01:31N 35°39' E 139°46'0 0.0
2014-Jul-24 00:31N 35°39' E 139°46'0 0.0
2014-Jul-23 23:31N 35°39' E 139°46'3 3.3
2014-Jul-23 22:33N 35°36' E 139°47'2 1.5
2014-Jul-23 21:28N 35°34' E 139°48'3 2.9
2014-Jul-23 20:33N 35°37' E 139°47'1 0.7
2014-Jul-23 19:33N 35°37' E 139°46'2 1.7
2014-Jul-23 18:30N 35°39' E 139°46'0 0.0
2014-Jul-23 17:30N 35°39' E 139°46'0 0.0
2014-Jul-23 16:33N 35°39' E 139°46'0 0.0
2014-Jul-23 15:24N 35°39' E 139°46'0 0.0
2014-Jul-23 14:30N 35°39' E 139°46'0 0.0
2014-Jul-23 13:27N 35°39' E 139°46'0 0.0
2014-Jul-23 12:33N 35°39' E 139°46'0 0.0
2014-Jul-23 11:33N 35°39' E 139°46'0 0.0
2014-Jul-23 10:33N 35°39' E 139°46'0 0.0
2014-Jul-23 09:30N 35°39' E 139°46'0 0.0
2014-Jul-23 08:33N 35°39' E 139°46'0 0.0
2014-Jul-23 07:30N 35°39' E 139°46'0 0.0
2014-Jul-23 06:24N 35°39' E 139°46'0 0.0
2014-Jul-23 05:33N 35°39' E 139°46'0 0.0
2014-Jul-23 04:33N 35°39' E 139°46'0 0.0
2014-Jul-23 03:24N 35°39' E 139°46'0 0.0
2014-Jul-23 02:33N 35°39' E 139°46'0 0.0
2014-Jul-23 01:30N 35°39' E 139°46'0 0.0
2014-Jul-23 00:30N 35°39' E 139°46'2 1.8
2014-Jul-22 23:33N 35°37' E 139°46'3 3.0
2014-Jul-22 22:33N 35°35' E 139°48'0 0.2
2014-Jul-22 21:33N 35°35' E 139°48'4 4.1
2014-Jul-22 20:28N 35°39' E 139°46'0 0.0
2014-Jul-22 19:31N 35°39' E 139°46'0 0.0
2014-Jul-22 18:31N 35°39' E 139°46'0 0.0
2014-Jul-22 17:31N 35°39' E 139°46'0 0.0
2014-Jul-22 16:31N 35°39' E 139°46'0 0.0
2014-Jul-22 15:25N 35°39' E 139°46'0 0.0
2014-Jul-22 14:31N 35°39' E 139°46'0 0.0
2014-Jul-22 13:28N 35°39' E 139°46'0 0.0
2014-Jul-22 12:31N 35°39' E 139°46'0 0.0
2014-Jul-22 11:28N 35°39' E 139°46'0 0.0
2014-Jul-22 10:28N 35°39' E 139°46'0 0.0
2014-Jul-22 09:31N 35°39' E 139°46'0 0.0
2014-Jul-22 08:28N 35°39' E 139°46'0 0.0
2014-Jul-22 07:31N 35°39' E 139°46'0 0.0
2014-Jul-22 06:28N 35°39' E 139°46'0 0.0
2014-Jul-22 05:31N 35°39' E 139°46'0 0.0
2014-Jul-22 04:31N 35°39' E 139°46'0 0.0
2014-Jul-22 03:28N 35°39' E 139°46'0 0.0
2014-Jul-22 02:31N 35°39' E 139°46'0 0.0
2014-Jul-22 01:31N 35°39' E 139°46'3 2.6
2014-Jul-22 00:33N 35°36' E 139°47'1 1.5
2014-Jul-21 23:33N 35°35' E 139°47'4 3.9
2014-Jul-21 22:31N 35°39' E 139°46'0 0.0
2014-Jul-21 21:31N 35°39' E 139°46'0 0.0
2014-Jul-21 20:28N 35°39' E 139°46'0 0.0
2014-Jul-21 20:16N 35°39' E 139°46'0 0.1
2014-Jul-21 19:31N 35°39' E 139°46'0 0.0
2014-Jul-21 18:31N 35°39' E 139°46'0 0.0
2014-Jul-21 17:31N 35°39' E 139°46'0 0.0
2014-Jul-21 16:28N 35°39' E 139°46'0 0.0
2014-Jul-21 15:28N 35°39' E 139°46'0 0.0
2014-Jul-21 14:31N 35°39' E 139°46'0 0.0
2014-Jul-21 13:31N 35°39' E 139°46'0 0.0
2014-Jul-21 12:31N 35°39' E 139°46'0 0.0
2014-Jul-21 11:31N 35°39' E 139°46'0 0.0
2014-Jul-21 10:16N 35°39' E 139°46'3 3.5
2014-Jul-21 09:29N 35°36' E 139°47'2 2.3
2014-Jul-21 08:33N 35°35' E 139°49'3 2.8
2014-Jul-21 07:34N 35°36' E 139°46'2 2.1
2014-Jul-21 06:23N 35°39' E 139°46'0 0.0
2014-Jul-21 05:32N 35°39' E 139°46'0 0.0
2014-Jul-21 04:23N 35°39' E 139°46'0 0.0
2014-Jul-21 03:26N 35°39' E 139°46'0 0.0
2014-Jul-21 02:29N 35°39' E 139°46'0 0.0
2014-Jul-21 01:29N 35°39' E 139°46'0 0.0
2014-Jul-21 00:26N 35°39' E 139°46'0 0.1
2014-Jul-20 23:29N 35°39' E 139°46'2 2.4
2014-Jul-20 22:28N 35°36' E 139°46'3 3.6
2014-Jul-20 21:33N 35°34' E 139°49'5 5.3
2014-Jul-20 20:33N 35°39' E 139°46'0 0.0
2014-Jul-20 19:30N 35°39' E 139°46'0 0.0
2014-Jul-20 18:33N 35°39' E 139°46'0 0.0
2014-Jul-20 17:33N 35°39' E 139°46'0 0.0
2014-Jul-20 16:30N 35°39' E 139°46'0 0.0
2014-Jul-20 15:30N 35°39' E 139°46'0 0.0
2014-Jul-20 14:30N 35°39' E 139°46'0 0.0
2014-Jul-20 13:33N 35°39' E 139°46'0 0.0
2014-Jul-20 12:33N 35°39' E 139°46'0 0.0
2014-Jul-20 11:24N 35°39' E 139°46'0 0.0
2014-Jul-20 10:30N 35°39' E 139°46'0 0.0
2014-Jul-20 09:30N 35°39' E 139°46'0 0.0
2014-Jul-20 08:33N 35°39' E 139°46'0 0.0
2014-Jul-20 07:30N 35°39' E 139°46'0 0.0
2014-Jul-20 06:33N 35°39' E 139°46'0 0.0
2014-Jul-20 05:33N 35°39' E 139°46'0 0.0
2014-Jul-20 04:27N 35°39' E 139°46'0 0.0
2014-Jul-20 03:33N 35°39' E 139°46'0 0.0
2014-Jul-20 02:30N 35°39' E 139°46'0 0.0
2014-Jul-20 01:33N 35°39' E 139°46'0 0.0
2014-Jul-20 00:33N 35°39' E 139°46'0 0.0
2014-Jul-19 23:30N 35°39' E 139°46'0 0.0
2014-Jul-19 22:15N 35°39' E 139°46'0 0.0
2014-Jul-19 21:33N 35°39' E 139°46'0 0.0
2014-Jul-19 20:33N 35°39' E 139°46'0 0.0
2014-Jul-19 19:30N 35°39' E 139°46'0 0.1
2014-Jul-19 18:33N 35°39' E 139°46'0 0.0
2014-Jul-19 17:33N 35°39' E 139°46'0 0.0
2014-Jul-19 16:33N 35°39' E 139°46'0 0.0
2014-Jul-19 15:30N 35°39' E 139°46'0 0.0
2014-Jul-19 14:33N 35°39' E 139°46'0 0.0
2014-Jul-19 13:30N 35°39' E 139°46'0 0.0
2014-Jul-19 12:24N 35°39' E 139°46'0 0.0
2014-Jul-19 11:18N 35°39' E 139°46'0 0.0
2014-Jul-19 10:24N 35°39' E 139°46'0 0.0
2014-Jul-19 09:33N 35°39' E 139°46'0 0.0
2014-Jul-19 08:27N 35°39' E 139°46'0 0.0
2014-Jul-19 07:33N 35°39' E 139°46'0 0.0
2014-Jul-19 06:30N 35°39' E 139°46'0 0.0
2014-Jul-19 05:30N 35°39' E 139°46'0 0.0
2014-Jul-19 04:27N 35°39' E 139°46'0 0.0
2014-Jul-19 03:33N 35°39' E 139°46'0 0.0
2014-Jul-19 02:33N 35°39' E 139°46'0 0.0
2014-Jul-19 01:30N 35°39' E 139°46'0 0.0
2014-Jul-19 00:33N 35°39' E 139°46'0 0.0
2014-Jul-18 23:33N 35°39' E 139°46'0 0.0
2014-Jul-18 22:30N 35°39' E 139°46'0 0.1
2014-Jul-18 21:33N 35°39' E 139°46'0 0.0
2014-Jul-18 20:30N 35°39' E 139°46'  
Track history (hours):
 
Tides and Currents Weather Stations Pressure Air Temp Water Temp Dewpoint Dewpoint Depression Visibility Wind Speed Wind Dir Waves Ship Positions

Fuji Maru

Last reported at 2014-Jul-28 20:28 UTC. Time now 2014-Jul-28 20:42 UTC.
Position N 35°39' E 139°46'.

Length 38 m; draft 4.4 m.

Type: Tug. MMSI: 431001102.

Date/timePositionNaut miles runAvg speedWind from/ knotsBaromVisibWave heightAir tempDewpointWater temp
2014-Jul-28 20:28N 35°39' E 139°46'0 0.0
2014-Jul-28 19:22N 35°39' E 139°46'0 0.0
2014-Jul-28 18:22N 35°39' E 139°46'0 0.0
2014-Jul-28 17:31N 35°39' E 139°46'0 0.0
2014-Jul-28 16:31N 35°39' E 139°46'0 0.0
2014-Jul-28 15:28N 35°39' E 139°46'0 0.0
2014-Jul-28 14:28N 35°39' E 139°46'0 0.0
2014-Jul-28 13:31N 35°39' E 139°46'0 0.0
2014-Jul-28 12:28N 35°39' E 139°46'0 0.0
2014-Jul-28 11:28N 35°39' E 139°46'0 0.0
2014-Jul-28 10:31N 35°39' E 139°46'0 0.0
2014-Jul-28 09:31N 35°39' E 139°46'0 0.0
2014-Jul-28 08:28N 35°39' E 139°46'0 0.0
2014-Jul-28 07:31N 35°39' E 139°46'0 0.0
2014-Jul-28 06:25N 35°39' E 139°46'0 0.0
2014-Jul-28 05:31N 35°39' E 139°46'0 0.0
2014-Jul-28 04:31N 35°39' E 139°46'0 0.0
2014-Jul-28 03:28N 35°39' E 139°46'0 0.0
2014-Jul-28 02:28N 35°39' E 139°46'0 0.1
2014-Jul-28 01:31N 35°39' E 139°46'0 0.0
2014-Jul-28 00:28N 35°39' E 139°46'0 0.0
2014-Jul-27 23:31N 35°39' E 139°46'0 0.0
2014-Jul-27 22:28N 35°39' E 139°46'0 0.0
2014-Jul-27 21:28N 35°39' E 139°46'0 0.0
2014-Jul-27 20:22N 35°39' E 139°46'0 0.0
2014-Jul-27 19:22N 35°39' E 139°46'0 0.0
2014-Jul-27 18:28N 35°39' E 139°46'1 0.8
2014-Jul-27 17:33N 35°38' E 139°46'1 1.4
2014-Jul-27 16:33N 35°37' E 139°46'1 1.3
2014-Jul-27 15:31N 35°38' E 139°46'0 0.0
2014-Jul-27 14:31N 35°38' E 139°46'0 0.0
2014-Jul-27 13:31N 35°38' E 139°46'0 0.0
2014-Jul-27 12:31N 35°38' E 139°46'0 0.0
2014-Jul-27 11:28N 35°38' E 139°46'0 0.0
2014-Jul-27 10:28N 35°38' E 139°46'0 0.0
2014-Jul-27 09:31N 35°38' E 139°46'0 0.0
2014-Jul-27 08:31N 35°38' E 139°46'2 1.9
2014-Jul-27 07:28N 35°36' E 139°47'1 1.2
2014-Jul-27 06:33N 35°37' E 139°46'2 1.5
2014-Jul-27 05:26N 35°39' E 139°46'0 0.0
2014-Jul-27 04:32N 35°39' E 139°46'0 0.0
2014-Jul-27 03:29N 35°39' E 139°46'0 0.0
2014-Jul-27 02:29N 35°39' E 139°46'0 0.0
2014-Jul-27 01:23N 35°39' E 139°46'0 0.1
2014-Jul-27 00:32N 35°39' E 139°46'0 0.0
2014-Jul-26 23:29N 35°39' E 139°46'2 2.4
2014-Jul-26 22:33N 35°37' E 139°46'4 3.8
2014-Jul-26 21:33N 35°34' E 139°49'3 3.3
2014-Jul-26 20:33N 35°36' E 139°47'3 2.3
2014-Jul-26 19:28N 35°39' E 139°46'0 0.0
2014-Jul-26 18:31N 35°39' E 139°46'0 0.0
2014-Jul-26 17:28N 35°39' E 139°46'0 0.0
2014-Jul-26 16:31N 35°39' E 139°46'0 0.0
2014-Jul-26 15:28N 35°39' E 139°46'0 0.0
2014-Jul-26 14:31N 35°39' E 139°46'0 0.0
2014-Jul-26 13:22N 35°39' E 139°46'0 0.0
2014-Jul-26 12:31N 35°39' E 139°46'0 0.0
2014-Jul-26 11:25N 35°39' E 139°46'0 0.0
2014-Jul-26 10:28N 35°39' E 139°46'0 0.0
2014-Jul-26 09:28N 35°39' E 139°46'0 0.0
2014-Jul-26 08:28N 35°39' E 139°46'0 0.0
2014-Jul-26 07:28N 35°39' E 139°46'0 0.0
2014-Jul-26 06:28N 35°39' E 139°46'0 0.0
2014-Jul-26 05:31N 35°39' E 139°46'3 3.1
2014-Jul-26 04:33N 35°36' E 139°46'1 0.8
2014-Jul-26 03:30N 35°37' E 139°47'3 2.7
2014-Jul-26 02:34N 35°34' E 139°48'5 4.4
2014-Jul-26 01:28N 35°39' E 139°46'0 0.0
2014-Jul-26 00:31N 35°39' E 139°46'0 0.0
2014-Jul-25 23:31N 35°39' E 139°46'0 0.0
2014-Jul-25 22:32N 35°39' E 139°46'0 0.0
2014-Jul-25 21:33N 35°39' E 139°46'0 0.0
2014-Jul-25 20:27N 35°39' E 139°46'0 0.0
2014-Jul-25 19:33N 35°39' E 139°46'0 0.0
2014-Jul-25 18:33N 35°39' E 139°46'0 0.0
2014-Jul-25 17:24N 35°39' E 139°46'0 0.0
2014-Jul-25 16:33N 35°39' E 139°46'0 0.0
2014-Jul-25 15:27N 35°39' E 139°46'0 0.0
2014-Jul-25 14:33N 35°39' E 139°46'0 0.0
2014-Jul-25 13:33N 35°39' E 139°46'0 0.0
2014-Jul-25 12:33N 35°39' E 139°46'0 0.0
2014-Jul-25 11:33N 35°39' E 139°46'0 0.0
2014-Jul-25 10:33N 35°39' E 139°46'0 0.0
2014-Jul-25 09:33N 35°39' E 139°46'0 0.0
2014-Jul-25 08:27N 35°39' E 139°46'2 2.1
2014-Jul-25 07:33N 35°37' E 139°46'2 1.9
2014-Jul-25 06:33N 35°39' E 139°46'1 0.8
2014-Jul-25 05:33N 35°39' E 139°47'3 3.2
2014-Jul-25 04:34N 35°36' E 139°47'3 3.0
2014-Jul-25 03:32N 35°39' E 139°46'0 0.0
2014-Jul-25 02:32N 35°39' E 139°46'0 0.0
2014-Jul-25 01:29N 35°39' E 139°46'0 0.0
2014-Jul-25 00:32N 35°39' E 139°46'0 0.0
2014-Jul-24 23:29N 35°39' E 139°46'0 0.0
2014-Jul-24 22:32N 35°39' E 139°46'0 0.0
2014-Jul-24 21:32N 35°39' E 139°46'0 0.0
2014-Jul-24 20:26N 35°39' E 139°46'0 0.0
2014-Jul-24 19:17N 35°39' E 139°46'0 0.0
2014-Jul-24 18:29N 35°39' E 139°46'0 0.0
2014-Jul-24 17:32N 35°39' E 139°46'0 0.0
2014-Jul-24 16:32N 35°39' E 139°46'0 0.0
2014-Jul-24 15:32N 35°39' E 139°46'0 0.0
2014-Jul-24 14:20N 35°39' E 139°46'0 0.0
2014-Jul-24 13:32N 35°39' E 139°46'0 0.0
2014-Jul-24 12:29N 35°39' E 139°46'0 0.0
2014-Jul-24 11:32N 35°39' E 139°46'0 0.0
2014-Jul-24 10:29N 35°39' E 139°46'2 2.4
2014-Jul-24 09:33N 35°37' E 139°46'2 2.0
2014-Jul-24 08:33N 35°35' E 139°48'4 3.8
2014-Jul-24 07:31N 35°39' E 139°46'0 0.0
2014-Jul-24 06:31N 35°39' E 139°46'0 0.0
2014-Jul-24 05:31N 35°39' E 139°46'0 0.0
2014-Jul-24 04:28N 35°39' E 139°46'0 0.1
2014-Jul-24 03:31N 35°39' E 139°46'0 0.0
2014-Jul-24 02:28N 35°39' E 139°46'0 0.0
2014-Jul-24 01:31N 35°39' E 139°46'0 0.0
2014-Jul-24 00:31N 35°39' E 139°46'0 0.0
2014-Jul-23 23:31N 35°39' E 139°46'3 3.3
2014-Jul-23 22:33N 35°36' E 139°47'2 1.5
2014-Jul-23 21:28N 35°34' E 139°48'3 2.9
2014-Jul-23 20:33N 35°37' E 139°47'1 0.7
2014-Jul-23 19:33N 35°37' E 139°46'2 1.7
2014-Jul-23 18:30N 35°39' E 139°46'0 0.0
2014-Jul-23 17:30N 35°39' E 139°46'0 0.0
2014-Jul-23 16:33N 35°39' E 139°46'0 0.0
2014-Jul-23 15:24N 35°39' E 139°46'0 0.0
2014-Jul-23 14:30N 35°39' E 139°46'0 0.0
2014-Jul-23 13:27N 35°39' E 139°46'0 0.0
2014-Jul-23 12:33N 35°39' E 139°46'0 0.0
2014-Jul-23 11:33N 35°39' E 139°46'0 0.0
2014-Jul-23 10:33N 35°39' E 139°46'0 0.0
2014-Jul-23 09:30N 35°39' E 139°46'0 0.0
2014-Jul-23 08:33N 35°39' E 139°46'0 0.0
2014-Jul-23 07:30N 35°39' E 139°46'0 0.0
2014-Jul-23 06:24N 35°39' E 139°46'0 0.0
2014-Jul-23 05:33N 35°39' E 139°46'0 0.0
2014-Jul-23 04:33N 35°39' E 139°46'0 0.0
2014-Jul-23 03:24N 35°39' E 139°46'0 0.0
2014-Jul-23 02:33N 35°39' E 139°46'0 0.0
2014-Jul-23 01:30N 35°39' E 139°46'0 0.0
2014-Jul-23 00:30N 35°39' E 139°46'2 1.8
2014-Jul-22 23:33N 35°37' E 139°46'3 3.0
2014-Jul-22 22:33N 35°35' E 139°48'0 0.2
2014-Jul-22 21:33N 35°35' E 139°48'4 4.1
2014-Jul-22 20:28N 35°39' E 139°46'0 0.0
2014-Jul-22 19:31N 35°39' E 139°46'0 0.0
2014-Jul-22 18:31N 35°39' E 139°46'0 0.0
2014-Jul-22 17:31N 35°39' E 139°46'0 0.0
2014-Jul-22 16:31N 35°39' E 139°46'0 0.0
2014-Jul-22 15:25N 35°39' E 139°46'0 0.0
2014-Jul-22 14:31N 35°39' E 139°46'0 0.0
2014-Jul-22 13:28N 35°39' E 139°46'0 0.0
2014-Jul-22 12:31N 35°39' E 139°46'0 0.0
2014-Jul-22 11:28N 35°39' E 139°46'0 0.0
2014-Jul-22 10:28N 35°39' E 139°46'0 0.0
2014-Jul-22 09:31N 35°39' E 139°46'0 0.0
2014-Jul-22 08:28N 35°39' E 139°46'0 0.0
2014-Jul-22 07:31N 35°39' E 139°46'0 0.0
2014-Jul-22 06:28N 35°39' E 139°46'0 0.0
2014-Jul-22 05:31N 35°39' E 139°46'0 0.0
2014-Jul-22 04:31N 35°39' E 139°46'0 0.0
2014-Jul-22 03:28N 35°39' E 139°46'0 0.0
2014-Jul-22 02:31N 35°39' E 139°46'0 0.0
2014-Jul-22 01:31N 35°39' E 139°46'3 2.6
2014-Jul-22 00:33N 35°36' E 139°47'1 1.5
2014-Jul-21 23:33N 35°35' E 139°47'4 3.9
2014-Jul-21 22:31N 35°39' E 139°46'0 0.0
2014-Jul-21 21:31N 35°39' E 139°46'0 0.0
2014-Jul-21 20:28N 35°39' E 139°46'0 0.0
2014-Jul-21 20:16N 35°39' E 139°46'0 0.1
2014-Jul-21 19:31N 35°39' E 139°46'0 0.0
2014-Jul-21 18:31N 35°39' E 139°46'0 0.0
2014-Jul-21 17:31N 35°39' E 139°46'0 0.0
2014-Jul-21 16:28N 35°39' E 139°46'0 0.0
2014-Jul-21 15:28N 35°39' E 139°46'0 0.0
2014-Jul-21 14:31N 35°39' E 139°46'0 0.0
2014-Jul-21 13:31N 35°39' E 139°46'0 0.0
2014-Jul-21 12:31N 35°39' E 139°46'0 0.0
2014-Jul-21 11:31N 35°39' E 139°46'0 0.0
2014-Jul-21 10:16N 35°39' E 139°46'3 3.5
2014-Jul-21 09:29N 35°36' E 139°47'2 2.3
2014-Jul-21 08:33N 35°35' E 139°49'3 2.8
2014-Jul-21 07:34N 35°36' E 139°46'2 2.1
2014-Jul-21 06:23N 35°39' E 139°46'0 0.0
2014-Jul-21 05:32N 35°39' E 139°46'0 0.0
2014-Jul-21 04:23N 35°39' E 139°46'0 0.0
2014-Jul-21 03:26N 35°39' E 139°46'0 0.0
2014-Jul-21 02:29N 35°39' E 139°46'0 0.0
2014-Jul-21 01:29N 35°39' E 139°46'0 0.0
2014-Jul-21 00:26N 35°39' E 139°46'0 0.1
2014-Jul-20 23:29N 35°39' E 139°46'2 2.4
2014-Jul-20 22:28N 35°36' E 139°46'3 3.6
2014-Jul-20 21:33N 35°34' E 139°49'5 5.3
2014-Jul-20 20:33N 35°39' E 139°46'0 0.0
2014-Jul-20 19:30N 35°39' E 139°46'0 0.0
2014-Jul-20 18:33N 35°39' E 139°46'0 0.0
2014-Jul-20 17:33N 35°39' E 139°46'0 0.0
2014-Jul-20 16:30N 35°39' E 139°46'0 0.0
2014-Jul-20 15:30N 35°39' E 139°46'0 0.0
2014-Jul-20 14:30N 35°39' E 139°46'0 0.0
2014-Jul-20 13:33N 35°39' E 139°46'0 0.0
2014-Jul-20 12:33N 35°39' E 139°46'0 0.0
2014-Jul-20 11:24N 35°39' E 139°46'0 0.0
2014-Jul-20 10:30N 35°39' E 139°46'0 0.0
2014-Jul-20 09:30N 35°39' E 139°46'0 0.0
2014-Jul-20 08:33N 35°39' E 139°46'0 0.0
2014-Jul-20 07:30N 35°39' E 139°46'0 0.0
2014-Jul-20 06:33N 35°39' E 139°46'0 0.0
2014-Jul-20 05:33N 35°39' E 139°46'0 0.0
2014-Jul-20 04:27N 35°39' E 139°46'0 0.0
2014-Jul-20 03:33N 35°39' E 139°46'0 0.0
2014-Jul-20 02:30N 35°39' E 139°46'0 0.0
2014-Jul-20 01:33N 35°39' E 139°46'0 0.0
2014-Jul-20 00:33N 35°39' E 139°46'0 0.0
2014-Jul-19 23:30N 35°39' E 139°46'0 0.0
2014-Jul-19 22:15N 35°39' E 139°46'0 0.0
2014-Jul-19 21:33N 35°39' E 139°46'0 0.0
2014-Jul-19 20:33N 35°39' E 139°46'0 0.0
2014-Jul-19 19:30N 35°39' E 139°46'0 0.1
2014-Jul-19 18:33N 35°39' E 139°46'0 0.0
2014-Jul-19 17:33N 35°39' E 139°46'0 0.0
2014-Jul-19 16:33N 35°39' E 139°46'0 0.0
2014-Jul-19 15:30N 35°39' E 139°46'0 0.0
2014-Jul-19 14:33N 35°39' E 139°46'0 0.0
2014-Jul-19 13:30N 35°39' E 139°46'0 0.0
2014-Jul-19 12:24N 35°39' E 139°46'0 0.0
2014-Jul-19 11:18N 35°39' E 139°46'0 0.0
2014-Jul-19 10:24N 35°39' E 139°46'0 0.0
2014-Jul-19 09:33N 35°39' E 139°46'0 0.0
2014-Jul-19 08:27N 35°39' E 139°46'0 0.0
2014-Jul-19 07:33N 35°39' E 139°46'0 0.0
2014-Jul-19 06:30N 35°39' E 139°46'0 0.0
2014-Jul-19 05:30N 35°39' E 139°46'0 0.0
2014-Jul-19 04:27N 35°39' E 139°46'0 0.0
2014-Jul-19 03:33N 35°39' E 139°46'0 0.0
2014-Jul-19 02:33N 35°39' E 139°46'0 0.0
2014-Jul-19 01:30N 35°39' E 139°46'0 0.0
2014-Jul-19 00:33N 35°39' E 139°46'0 0.0
2014-Jul-18 23:33N 35°39' E 139°46'0 0.0
2014-Jul-18 22:30N 35°39' E 139°46'0 0.1
2014-Jul-18 21:33N 35°39' E 139°46'0 0.0
2014-Jul-18 20:30N 35°39' E 139°46'  

Dump ship's entire track history